Time;durP1;ratioP1;P1;durP2;ratioP2;P2;SDS_P1;SDS_P2;PMS_P1;PMS_P2;Temp;Humidity;BMP_temperature;BMP_pressure;BME280_temperature;BME280_humidity;BME280_pressure;Samples;Min_cycle;Max_cycle;Signal;HPM_P1;HPM_P2
2022/06/11 00:02:19;;;;;;;;;;;20.20;99.90;;;18.15;100.00;101043.16;5089773;28;19939;-85
2022/06/11 00:04:46;;;;;;;;;;;20.20;99.90;;;18.14;100.00;101045.06;5094292;28;20039;-84
2022/06/11 00:07:17;;;;;;;;;;;20.20;99.90;;;18.13;100.00;101056.31;5070580;28;20392;-84
2022/06/11 00:09:45;;;;;;;;;;;20.20;99.90;;;18.15;100.00;101054.19;5098829;28;20023;-85
2022/06/11 00:12:13;;;;;;;;;;;20.20;99.90;;;18.11;100.00;101053.78;5110132;28;20305;-84
2022/06/11 00:14:40;;;;;;;;;;;20.20;99.90;;;18.12;100.00;101060.13;5097410;28;19966;-84
2022/06/11 00:17:09;;;;;;;;;;;20.20;99.90;;;18.12;100.00;101060.13;5089536;28;19935;-84
2022/06/11 00:19:36;;;;;;;;;;;20.20;99.90;;;18.13;100.00;101062.66;5089132;28;20476;-85
2022/06/11 00:22:04;;;;;;;;;;;20.20;99.90;;;18.13;100.00;101056.31;5089708;28;19928;-84
2022/06/11 00:24:32;;;;;;;;;;;20.20;99.90;;;18.14;100.00;101060.75;5089044;28;19935;-85
2022/06/11 00:27:01;;;;;;;;;;;20.30;99.90;;;18.12;100.00;101051.84;5089246;28;19935;-84
2022/06/11 00:29:30;;;;;;;;;;;20.20;99.90;;;18.17;100.00;101052.03;5090885;28;19930;-84
2022/06/11 00:31:58;;;;;;;;;;;20.20;99.90;;;18.13;100.00;101056.31;5089036;28;20023;-85
2022/06/11 00:34:26;;;;;;;;;;;20.20;99.90;;;18.09;100.00;101055.06;5090356;28;19927;-84
2022/06/11 00:36:54;;;;;;;;;;;20.20;99.90;;;18.07;100.00;101051.69;5089280;28;19934;-84
2022/06/11 00:39:23;;;;;;;;;;;20.20;99.90;;;18.10;100.00;101056.75;5090226;28;19955;-85
2022/06/11 00:41:57;;;;;;;;;;;20.10;99.90;;;18.06;100.00;101052.75;5097945;28;19927;-85
2022/06/11 00:44:25;;;;;;;;;;;20.20;99.90;;;18.07;100.00;101054.44;5094784;28;19947;-85
2022/06/11 00:46:59;;;;;;;;;;;20.20;99.90;;;18.05;100.00;101051.03;5093265;28;19939;-85
2022/06/11 00:49:38;;;;;;;;;;;20.20;99.90;;;18.03;100.00;101051.28;5090410;28;19958;-84
2022/06/11 00:52:28;;;;;;;;;;;20.10;99.90;;;18.04;100.00;101043.84;5074629;28;19928;-85
2022/06/11 00:55:00;;;;;;;;;;;20.10;99.90;;;18.03;100.00;101039.41;5095570;28;19939;-85
2022/06/11 00:57:32;;;;;;;;;;;20.10;99.90;;;18.05;100.00;101042.78;5092818;28;20047;-84
2022/06/11 01:00:04;;;;;;;;;;;20.10;99.90;;;18.02;100.00;101046.00;5092246;28;19928;-85
2022/06/11 01:02:31;;;;;;;;;;;20.10;99.90;;;17.98;100.00;101043.66;5078242;28;20010;-84
2022/06/11 01:05:00;;;;;;;;;;;20.10;99.90;;;17.95;100.00;101046.03;5089517;28;19932;-84
2022/06/11 01:07:59;;;;;;;;;;;20.10;99.90;;;17.94;100.00;101042.44;5074393;28;19927;-84
2022/06/11 01:10:41;;;;;;;;;;;20.10;99.90;;;17.93;100.00;101049.00;5096430;28;20391;-85
2022/06/11 01:13:19;;;;;;;;;;;20.10;99.90;;;17.98;100.00;101048.34;5093047;28;20015;-85
2022/06/11 01:15:49;;;;;;;;;;;20.10;99.90;;;17.93;100.00;101046.25;5087474;28;20292;-85
2022/06/11 01:18:26;;;;;;;;;;;20.10;99.90;;;17.92;100.00;101039.06;5090792;28;19924;-85
2022/06/11 01:20:59;;;;;;;;;;;20.10;99.90;;;17.92;100.00;101044.56;5099063;28;19927;-85
2022/06/11 01:23:47;;;;;;;;;;;20.10;99.90;;;17.90;100.00;101035.69;5092344;28;19928;-85
2022/06/11 01:26:47;;;;;;;;;;;20.00;99.90;;;17.88;100.00;101032.31;5086294;28;19931;-85
2022/06/11 01:29:49;;;;;;;;;;;20.00;99.90;;;17.82;100.00;101037.78;5091343;28;19924;-84
2022/06/11 01:32:26;;;;;;;;;;;20.10;99.90;;;17.80;100.00;101046.31;5083545;28;20018;-84
2022/06/11 01:35:06;;;;;;;;;;;20.00;99.90;;;17.75;100.00;101046.09;5112464;28;19927;-85
2022/06/11 01:37:39;;;;;;;;;;;20.00;99.90;;;17.70;100.00;101043.16;5091683;28;19948;-84
2022/06/11 01:40:11;;;;;;;;;;;20.00;99.90;;;17.66;100.00;101045.50;5098330;28;19927;-84
2022/06/11 01:42:42;;;;;;;;;;;19.90;99.90;;;17.59;100.00;101040.03;5083624;28;20396;-85
2022/06/11 01:45:16;;;;;;;;;;;19.90;99.90;;;17.56;100.00;101040.47;5093010;28;19924;-84
2022/06/11 01:47:44;;;;;;;;;;;19.90;99.90;;;17.52;100.00;101043.88;5091552;28;19932;-84
2022/06/11 01:50:15;;;;;;;;;;;19.90;99.90;;;17.49;100.00;101045.13;5092977;28;20373;-84
2022/06/11 01:52:59;;;;;;;;;;;19.90;99.90;;;17.49;100.00;101045.13;5091803;28;19972;-84
2022/06/11 01:55:35;;;;;;;;;;;19.90;99.90;;;17.50;100.00;101052.34;5107917;28;19931;-85
2022/06/11 01:58:15;;;;;;;;;;;19.80;99.90;;;17.46;100.00;101047.47;5095794;28;19932;-85
2022/06/11 02:00:46;;;;;;;;;;;19.80;99.90;;;17.42;100.00;101055.34;5100717;28;19927;-84
2022/06/11 02:03:33;;;;;;;;;;;19.80;99.90;;;17.32;100.00;101049.44;5094840;28;19932;-84
2022/06/11 02:06:34;;;;;;;;;;;19.80;99.90;;;17.19;100.00;101050.31;5091325;28;19938;-84
2022/06/11 02:09:11;;;;;;;;;;;19.70;99.90;;;17.09;100.00;101055.41;5089921;28;19963;-85
2022/06/11 02:11:41;;;;;;;;;;;19.70;99.90;;;17.00;100.00;101058.41;5096292;28;19959;-84
2022/06/11 02:14:14;;;;;;;;;;;19.70;99.90;;;16.96;100.00;101061.78;5091267;28;20026;-84
2022/06/11 02:16:46;;;;;;;;;;;19.60;99.90;;;16.90;100.00;101057.13;5091632;28;19935;-84
2022/06/11 02:19:17;;;;;;;;;;;19.60;99.90;;;16.88;100.00;101059.25;5090158;28;19928;-85
2022/06/11 02:21:49;;;;;;;;;;;19.60;99.90;;;16.80;100.00;101061.13;5099865;28;19950;-84
2022/06/11 02:24:19;;;;;;;;;;;19.60;99.90;;;16.79;100.00;101064.09;5091096;28;20023;-85
2022/06/11 02:26:50;;;;;;;;;;;19.50;99.90;;;16.69;100.00;101067.25;5098200;28;19967;-85
2022/06/11 02:29:20;;;;;;;;;;;19.50;99.90;;;16.67;100.00;101074.88;5090180;28;19924;-85
2022/06/11 02:31:55;;;;;;;;;;;19.40;99.90;;;16.64;100.00;101074.44;5090864;28;20326;-84
2022/06/11 02:34:25;;;;;;;;;;;19.40;99.90;;;16.61;100.00;101070.22;5094791;28;20291;-84
2022/06/11 02:36:58;;;;;;;;;;;19.40;99.90;;;16.61;100.00;101071.06;5089676;28;20003;-84
2022/06/11 02:39:26;;;;;;;;;;;19.30;99.90;;;16.57;100.00;101068.97;5092519;28;20018;-84
2022/06/11 02:41:53;;;;;;;;;;;19.30;99.90;;;16.50;100.00;101071.69;5092767;28;19928;-84
2022/06/11 02:44:21;;;;;;;;;;;19.30;99.90;;;16.48;100.00;101070.22;5111114;28;20407;-85
2022/06/11 02:46:49;;;;;;;;;;;19.30;99.90;;;16.38;100.00;101071.47;5080364;28;19924;-84
2022/06/11 02:49:20;;;;;;;;;;;19.20;99.90;;;16.39;100.00;101077.81;5092751;28;19967;-84
2022/06/11 02:51:49;;;;;;;;;;;19.20;99.90;;;16.36;100.00;101081.84;5094555;28;19924;-84
2022/06/11 02:54:16;;;;;;;;;;;19.20;99.90;;;16.32;100.00;101075.06;5096752;28;19928;-84
2022/06/11 02:56:43;;;;;;;;;;;19.20;99.90;;;16.30;100.00;101073.59;5071725;28;19927;-84
2022/06/11 02:59:11;;;;;;;;;;;19.10;99.90;;;16.28;100.00;101075.69;5089657;28;19927;-84
2022/06/11 03:01:39;;;;;;;;;;;19.10;99.90;;;16.23;100.00;101068.91;5093200;28;19924;-84
2022/06/11 03:04:07;;;;;;;;;;;19.10;99.90;;;16.20;100.00;101068.47;5110723;28;20056;-84
2022/06/11 03:06:38;;;;;;;;;;;19.10;99.90;;;16.15;100.00;101079.25;5101815;28;19955;-84
2022/06/11 03:09:06;;;;;;;;;;;19.10;99.90;;;16.10;100.00;101077.13;5088930;28;19931;-85
2022/06/11 03:11:33;;;;;;;;;;;19.00;99.90;;;16.07;100.00;101085.78;5090243;28;19928;-84
2022/06/11 03:14:00;;;;;;;;;;;19.00;99.90;;;16.05;100.00;101085.16;5090340;28;19946;-84
2022/06/11 03:16:27;;;;;;;;;;;19.00;99.90;;;16.00;100.00;101087.66;5091705;28;19924;-84
2022/06/11 03:18:54;;;;;;;;;;;19.00;99.90;;;15.96;100.00;101095.47;5089399;28;19942;-85
2022/06/11 03:21:22;;;;;;;;;;;19.00;99.90;;;15.95;100.00;101087.44;5090289;28;19928;-85
2022/06/11 03:23:49;;;;;;;;;;;18.90;99.90;;;15.94;100.00;101097.56;5090332;28;19950;-85
2022/06/11 03:26:16;;;;;;;;;;;18.90;99.90;;;15.88;100.00;101092.91;5090140;28;20018;-84
2022/06/11 03:28:43;;;;;;;;;;;18.90;99.90;;;15.89;100.00;101097.34;5088681;28;19935;-84
2022/06/11 03:31:10;;;;;;;;;;;18.90;99.90;;;15.87;100.00;101093.94;5090088;28;19930;-84
2022/06/11 03:33:39;;;;;;;;;;;18.80;99.90;;;15.88;100.00;101098.41;5089896;28;19928;-84
2022/06/11 03:36:07;;;;;;;;;;;18.80;99.90;;;15.86;100.00;101097.75;5091079;28;20006;-84
2022/06/11 03:38:36;;;;;;;;;;;18.80;99.90;;;15.87;100.00;101088.47;5088986;28;20426;-85
2022/06/11 03:41:04;;;;;;;;;;;18.80;99.90;;;15.89;100.00;101102.00;5077831;28;20376;-84
2022/06/11 03:43:31;;;;;;;;;;;18.80;99.90;;;15.91;100.00;101097.13;5110393;28;19930;-84
2022/06/11 03:45:59;;;;;;;;;;;18.80;99.90;;;15.94;100.00;101102.22;5104456;28;19967;-84
2022/06/11 03:48:28;;;;;;;;;;;18.80;99.90;;;15.94;100.00;101108.56;5088883;28;20369;-85
2022/06/11 03:50:56;;;;;;;;;;;18.80;99.90;;;15.92;100.00;101104.34;5094030;28;19963;-84
2022/06/11 03:53:23;;;;;;;;;;;18.70;99.90;;;15.91;100.00;101108.94;5102915;28;20027;-85
2022/06/11 03:55:52;;;;;;;;;;;18.70;99.90;;;15.99;100.00;101108.78;5097617;28;20400;-84
2022/06/11 03:58:19;;;;;;;;;;;18.70;99.90;;;16.06;100.00;101105.22;5088892;28;20026;-85
2022/06/11 04:03:31;;;;;;;;;;;18.80;99.90;;;16.13;100.00;101106.94;5089578;28;19935;-84
2022/06/11 04:05:59;;;;;;;;;;;18.80;99.90;;;16.13;100.00;101106.94;5088689;28;19928;-87
2022/06/11 04:08:27;;;;;;;;;;;18.80;99.90;;;16.10;100.00;101109.22;5088750;28;20390;-83
2022/06/11 04:10:57;;;;;;;;;;;18.80;99.90;;;16.11;100.00;101109.03;5099967;28;19932;-83
2022/06/11 04:13:26;;;;;;;;;;;18.80;99.90;;;16.12;100.00;101110.72;5101739;28;19924;-87
2022/06/11 04:15:54;;;;;;;;;;;18.80;99.90;;;16.13;100.00;101111.59;5074489;28;20296;-85
2022/06/11 04:18:27;;;;;;;;;;;18.80;99.90;;;16.14;100.00;101107.75;5074557;28;19933;-85
2022/06/11 04:20:55;;;;;;;;;;;18.70;99.90;;;16.20;100.00;101115.16;5093481;28;19950;-85
2022/06/11 04:23:24;;;;;;;;;;;18.70;99.90;;;16.27;100.00;101102.31;5094671;28;19928;-86
2022/06/11 04:25:51;;;;;;;;;;;18.80;99.90;;;16.35;100.00;101110.34;5101930;28;19931;-85
2022/06/11 04:28:20;;;;;;;;;;;18.70;99.90;;;16.40;100.00;101113.31;5092450;28;19932;-86
2022/06/11 04:30:47;;;;;;;;;;;18.80;99.90;;;16.48;100.00;101108.69;5099256;28;20027;-86
2022/06/11 04:33:14;;;;;;;;;;;18.90;99.90;;;16.66;100.00;101110.81;5093274;28;20030;-84
2022/06/11 04:35:41;;;;;;;;;;;19.00;99.90;;;16.81;100.00;101111.44;5093097;28;20309;-85
2022/06/11 04:38:08;;;;;;;;;;;19.00;99.90;;;17.00;100.00;101104.28;5074043;28;19928;-84
2022/06/11 04:40:35;;;;;;;;;;;19.10;99.90;;;17.13;100.00;101108.94;5093416;28;20410;-85
2022/06/11 04:43:02;;;;;;;;;;;19.20;99.90;;;17.33;100.00;101111.66;5102899;28;20014;-84
2022/06/11 04:45:30;;;;;;;;;;;19.30;99.90;;;17.47;100.00;101110.56;5095036;28;20327;-85
2022/06/11 04:47:57;;;;;;;;;;;19.30;99.90;;;17.65;100.00;101109.03;5100433;28;20285;-85
2022/06/11 04:50:24;;;;;;;;;;;19.40;99.90;;;17.79;100.00;101116.19;5095780;28;19930;-87
2022/06/11 04:52:51;;;;;;;;;;;19.50;99.90;;;17.86;100.00;101111.53;5092812;28;20381;-86
2022/06/11 04:55:19;;;;;;;;;;;19.60;99.90;;;18.02;100.00;101115.69;5092825;28;20308;-86
2022/06/11 04:57:47;;;;;;;;;;;19.70;99.90;;;18.19;100.00;101116.03;5091961;28;19954;-87
2022/06/11 05:00:18;;;;;;;;;;;19.70;99.90;;;18.41;100.00;101118.44;5092627;28;19947;-87
2022/06/11 05:02:47;;;;;;;;;;;19.90;99.90;;;18.51;100.00;101119.66;5111308;28;19934;-86
2022/06/11 05:05:15;;;;;;;;;;;19.90;99.90;;;18.66;100.00;101116.56;5107352;28;19939;-82
2022/06/11 05:07:43;;;;;;;;;;;20.00;99.90;;;18.84;100.00;101114.97;5090379;22;20015;-80
2022/06/11 05:10:12;;;;;;;;;;;20.10;99.90;;;18.93;100.00;101114.47;5071839;28;20405;-81
2022/06/11 05:12:40;;;;;;;;;;;20.20;99.90;;;19.07;100.00;101122.63;5072215;28;20026;-81
2022/06/11 05:15:08;;;;;;;;;;;20.30;99.90;;;19.11;100.00;101129.38;5055645;28;19932;-81
2022/06/11 05:17:35;;;;;;;;;;;20.30;99.90;;;19.13;100.00;101133.63;5070817;28;20015;-80
2022/06/11 05:20:04;;;;;;;;;;;20.40;99.90;;;19.31;100.00;101123.69;5052832;28;19939;-82
2022/06/11 05:22:32;;;;;;;;;;;20.40;99.90;;;19.69;100.00;101122.63;5071788;28;20024;-84
2022/06/11 05:24:59;;;;;;;;;;;20.50;99.90;;;20.18;100.00;101133.72;5071062;28;19930;-83
2022/06/11 05:27:27;;;;;;;;;;;20.50;99.90;;;20.36;100.00;101135.63;5070761;28;19928;-81
2022/06/11 05:29:57;;;;;;;;;;;20.60;99.90;;;20.23;100.00;101140.25;5071019;28;20388;-84
2022/06/11 05:32:27;;;;;;;;;;;20.70;99.90;;;20.06;100.00;101148.31;5071827;28;20026;-83
2022/06/11 05:34:54;;;;;;;;;;;20.70;99.90;;;19.78;100.00;101134.22;5070558;28;19934;-83
2022/06/11 05:37:22;;;;;;;;;;;20.70;99.90;;;19.47;100.00;101139.63;5070650;28;20554;-83
2022/06/11 05:39:49;;;;;;;;;;;20.70;99.90;;;19.26;100.00;101143.66;5071034;28;19931;-82
2022/06/11 05:42:18;;;;;;;;;;;20.70;99.90;;;19.09;100.00;101148.91;5071875;28;19958;-81
2022/06/11 05:44:45;;;;;;;;;;;20.70;99.90;;;18.93;100.00;101149.50;5071699;28;19936;-82
2022/06/11 05:47:15;;;;;;;;;;;20.60;99.90;;;18.75;100.00;101153.84;5070759;28;19929;-82
2022/06/11 05:49:44;;;;;;;;;;;20.60;99.90;;;18.58;100.00;101151.81;5062037;28;19928;-82
2022/06/11 05:52:16;;;;;;;;;;;20.60;99.90;;;18.51;100.00;101157.41;5067721;28;20399;-82
2022/06/11 05:54:46;;;;;;;;;;;20.50;99.90;;;18.45;100.00;101155.50;5071499;28;19932;-82
2022/06/11 05:57:15;;;;;;;;;;;20.50;99.90;;;18.46;100.00;101154.44;5070322;28;19928;-82
2022/06/11 05:59:45;;;;;;;;;;;20.40;99.90;;;18.42;100.00;101145.78;5062116;28;20018;-84
2022/06/11 06:02:15;;;;;;;;;;;20.40;99.90;;;18.42;100.00;101155.97;5071139;28;19975;-85
2022/06/11 06:04:42;;;;;;;;;;;20.40;99.90;;;18.41;100.00;101152.38;5071368;28;20019;-84
2022/06/11 06:07:10;;;;;;;;;;;20.40;99.90;;;18.42;100.00;101155.97;5070102;28;19929;-84
2022/06/11 06:09:38;;;;;;;;;;;20.40;99.90;;;18.52;100.00;101153.56;5051573;28;20297;-84
2022/06/11 06:12:08;;;;;;;;;;;20.40;99.90;;;18.51;100.00;101155.47;5071021;28;19931;-84
2022/06/11 06:14:35;;;;;;;;;;;20.40;99.90;;;18.52;100.00;101159.94;5071177;28;19924;-84
2022/06/11 06:17:02;;;;;;;;;;;20.40;99.90;;;18.58;100.00;101157.34;5070104;28;20034;-83
2022/06/11 06:19:29;;;;;;;;;;;20.40;99.90;;;18.57;100.00;101156.50;5070268;28;19971;-84
2022/06/11 06:21:56;;;;;;;;;;;20.40;99.90;;;18.59;100.00;101165.41;5070987;28;20418;-83
2022/06/11 06:24:23;;;;;;;;;;;20.30;99.90;;;18.60;100.00;101169.00;5070962;28;19929;-83
2022/06/11 06:26:50;;;;;;;;;;;20.30;99.90;;;18.65;100.00;101166.41;5069912;28;19963;-87
2022/06/11 06:29:19;;;;;;;;;;;20.30;99.90;;;18.67;100.00;101167.88;5069998;28;20331;-86
2022/06/11 06:31:47;;;;;;;;;;;20.40;99.90;;;18.73;100.00;101167.00;5070839;28;19925;-85
2022/06/11 06:34:14;;;;;;;;;;;20.40;99.90;;;18.79;100.00;101165.28;5052766;28;19935;-86
2022/06/11 06:36:41;;;;;;;;;;;20.40;99.90;;;18.88;100.00;101165.88;5069859;28;19982;-86
2022/06/11 06:39:08;;;;;;;;;;;20.40;99.90;;;18.89;100.00;101175.84;5069197;28;19936;-84
2022/06/11 06:41:36;;;;;;;;;;;20.40;99.90;;;18.99;100.00;101164.31;5074459;28;20395;-86
2022/06/11 06:44:03;;;;;;;;;;;20.40;99.90;;;19.17;100.00;101166.25;5068358;28;19946;-87
2022/06/11 06:46:31;;;;;;;;;;;20.40;99.90;;;19.31;100.00;101167.84;5047914;28;20359;-87
2022/06/11 06:48:58;;;;;;;;;;;20.50;99.90;;;19.40;100.00;101172.00;5045662;28;19931;-88
2022/06/11 06:51:25;;;;;;;;;;;20.50;99.90;;;19.50;100.00;101174.25;5069956;28;19924;-86
2022/06/11 06:53:52;;;;;;;;;;;20.60;99.90;;;19.70;100.00;101166.59;5070717;28;19925;-84
2022/06/11 06:56:20;;;;;;;;;;;20.60;99.90;;;19.90;100.00;101166.38;5047649;28;19933;-83
2022/06/11 06:58:47;;;;;;;;;;;20.60;99.90;;;20.46;100.00;101174.59;5064260;28;21688;-84
2022/06/11 07:01:14;;;;;;;;;;;20.70;99.90;;;20.93;99.84;101174.78;5068479;28;20035;-80
2022/06/11 07:03:43;;;;;;;;;;;20.80;99.90;;;21.20;98.63;101171.56;5049855;28;19947;-81
2022/06/11 07:06:10;;;;;;;;;;;20.90;99.90;;;21.11;97.96;101187.66;5069831;28;20022;-80
2022/06/11 07:08:37;;;;;;;;;;;21.00;99.90;;;20.85;100.00;101180.66;5068720;28;20387;-79
2022/06/11 07:11:04;;;;;;;;;;;21.00;99.90;;;20.64;100.00;101187.59;5072080;28;19963;-78
2022/06/11 07:13:32;;;;;;;;;;;21.00;99.90;;;20.45;99.64;101181.22;5068664;28;19925;-79
2022/06/11 07:16:00;;;;;;;;;;;21.00;99.90;;;20.30;100.00;101190.75;5069664;28;19936;-78
2022/06/11 07:18:30;;;;;;;;;;;21.00;99.90;;;20.24;100.00;101183.41;5067330;28;20034;-77
2022/06/11 07:21:00;;;;;;;;;;;21.00;99.90;;;20.14;100.00;101185.03;5065886;28;20011;-78
2022/06/11 07:23:31;;;;;;;;;;;21.10;99.90;;;20.12;100.00;101190.78;5068914;28;20013;-78
2022/06/11 07:25:59;;;;;;;;;;;21.10;99.90;;;20.06;100.00;101187.00;5063777;28;20023;-84
2022/06/11 07:28:30;;;;;;;;;;;21.10;99.90;;;20.03;100.00;101189.41;5068093;28;19928;-79
2022/06/11 07:30:59;;;;;;;;;;;21.10;99.90;;;20.18;100.00;101184.34;5069662;28;20571;-76
2022/06/11 07:33:27;;;;;;;;;;;21.10;99.90;;;20.41;99.08;101191.91;5069791;28;19928;-77
2022/06/11 07:35:54;;;;;;;;;;;21.10;99.90;;;20.51;97.65;101188.56;5069568;28;19975;-77
2022/06/11 07:38:23;;;;;;;;;;;21.10;99.90;;;20.85;97.60;101189.81;5067409;28;19924;-77
2022/06/11 07:40:51;;;;;;;;;;;21.20;99.90;;;21.11;97.13;101189.59;5069208;28;19925;-76
2022/06/11 07:43:18;;;;;;;;;;;21.30;99.90;;;21.09;94.78;101190.69;5069867;28;19934;-76
2022/06/11 07:45:46;;;;;;;;;;;21.30;99.90;;;21.16;93.89;101184.22;5068811;28;19928;-77
2022/06/11 07:48:14;;;;;;;;;;;21.30;99.90;;;21.25;93.17;101189.16;5064075;28;20407;-76
2022/06/11 07:50:43;;;;;;;;;;;21.30;99.90;;;21.57;92.13;101191.59;5065871;28;19925;-76
2022/06/11 07:53:11;;;;;;;;;;;21.40;99.90;;;21.65;91.09;101182.09;5070585;28;19928;-76
2022/06/11 07:55:43;;;;;;;;;;;21.50;99.90;;;21.75;92.00;101176.75;5070808;28;19928;-77
2022/06/11 07:58:11;;;;;;;;;;;21.60;99.90;;;21.76;90.79;101184.00;5074665;28;19928;-76
2022/06/11 08:00:41;;;;;;;;;;;21.60;99.90;;;21.66;90.85;101183.75;5073653;28;19929;-77
2022/06/11 08:03:08;;;;;;;;;;;21.70;99.90;;;21.62;92.86;101183.41;5072710;28;19928;-76
2022/06/11 08:05:36;;;;;;;;;;;21.80;99.90;;;21.56;92.59;101186.31;5072652;28;19928;-76
2022/06/11 08:08:03;;;;;;;;;;;21.80;99.90;;;21.47;91.17;101185.81;5071978;28;20031;-77
2022/06/11 08:10:31;;;;;;;;;;;21.80;99.90;;;21.39;93.62;101189.75;5073497;28;19929;-76
2022/06/11 08:12:59;;;;;;;;;;;21.80;99.90;;;21.50;93.53;101190.03;5054920;28;20350;-76
2022/06/11 08:15:27;;;;;;;;;;;21.80;99.90;;;21.72;92.08;101182.78;5071635;28;20026;-77
2022/06/11 08:17:54;;;;;;;;;;;21.90;99.90;;;21.80;90.31;101190.75;5052498;28;20408;-76
2022/06/11 08:20:24;;;;;;;;;;;21.90;99.90;;;21.73;92.26;101195.56;5065800;28;20023;-77
2022/06/11 08:22:52;;;;;;;;;;;21.90;99.90;;;21.71;91.87;101197.72;5073069;28;20032;-76
2022/06/11 08:25:19;;;;;;;;;;;22.00;99.90;;;21.73;91.80;101192.78;5072937;28;19930;-76
2022/06/11 08:27:47;;;;;;;;;;;22.00;99.90;;;21.52;92.52;101198.97;5072062;28;20026;-77
2022/06/11 08:30:16;;;;;;;;;;;22.00;99.90;;;21.26;91.59;101199.13;5072871;28;20381;-76
2022/06/11 08:32:43;;;;;;;;;;;21.90;99.90;;;21.17;91.42;101200.59;5072817;28;19986;-76
2022/06/11 08:35:12;;;;;;;;;;;21.90;99.90;;;21.06;92.00;101202.25;5072823;28;19946;-76
2022/06/11 08:37:39;;;;;;;;;;;21.90;99.90;;;21.09;91.49;101200.91;5072148;28;19928;-76
2022/06/11 08:40:08;;;;;;;;;;;21.80;99.90;;;21.24;90.30;101197.69;5072152;28;19933;-81
2022/06/11 08:42:37;;;;;;;;;;;21.80;99.90;;;21.31;92.67;101198.44;5072754;28;19935;-76
2022/06/11 08:45:13;;;;;;;;;;;21.90;99.90;;;21.27;91.35;101197.22;5075223;28;20371;-78
2022/06/11 08:47:46;;;;;;;;;;;21.90;99.90;;;21.29;93.66;101201.44;5071542;28;19972;-77
2022/06/11 08:50:17;;;;;;;;;;;21.90;99.90;;;21.34;94.72;101203.47;5072517;28;20036;-77
2022/06/11 08:52:45;;;;;;;;;;;21.90;99.90;;;21.39;93.78;101205.53;5072793;28;20345;-75
2022/06/11 08:55:12;;;;;;;;;;;21.90;99.90;;;21.46;94.12;101203.53;5072094;28;19932;-76
2022/06/11 08:57:51;;;;;;;;;;;21.90;99.90;;;21.45;92.86;101199.91;5071705;28;20362;-76
2022/06/11 09:00:19;;;;;;;;;;;21.90;99.90;;;21.37;90.55;101208.53;5066802;28;20333;-76
2022/06/11 09:03:05;;;;;;;;;;;21.90;99.90;;;21.42;90.48;101200.34;5074839;28;19928;-79
2022/06/11 09:05:46;;;;;;;;;;;21.90;99.90;;;21.45;91.03;101210.97;5083331;28;20356;-76
2022/06/11 09:08:29;;;;;;;;;;;21.90;99.90;;;21.54;92.19;101203.16;5067110;28;20015;-76
2022/06/11 09:11:11;;;;;;;;;;;21.90;99.90;;;21.46;92.42;101198.00;5070448;28;19968;-77
2022/06/11 09:14:13;;;;;;;;;;;22.00;99.90;;;21.31;93.47;101203.97;5048588;28;19928;-76
2022/06/11 09:16:54;;;;;;;;;;;22.00;99.90;;;21.13;92.67;101206.81;5064654;28;19959;-76
2022/06/11 09:19:32;;;;;;;;;;;21.90;99.90;;;21.04;92.98;101201.63;5064009;28;19929;-76
2022/06/11 09:22:08;;;;;;;;;;;21.90;99.90;;;21.12;96.68;101205.97;5062156;28;19928;-76
2022/06/11 09:24:55;;;;;;;;;;;21.90;99.90;;;21.33;94.83;101195.41;5067346;28;19966;-76
2022/06/11 09:27:28;;;;;;;;;;;21.90;99.90;;;21.39;93.88;101200.81;5065448;28;19925;-76
2022/06/11 09:30:04;;;;;;;;;;;21.90;99.90;;;21.38;94.49;101199.16;5052959;28;19933;-76
2022/06/11 09:32:32;;;;;;;;;;;22.00;99.90;;;21.45;94.10;101199.91;5067230;28;20023;-77
2022/06/11 09:35:06;;;;;;;;;;;22.00;99.90;;;21.64;93.60;101208.09;5070060;28;19935;-76
2022/06/11 09:37:41;;;;;;;;;;;22.00;99.90;;;21.83;92.35;101206.03;5070741;28;19951;-76
2022/06/11 09:40:15;;;;;;;;;;;22.00;99.90;;;21.91;92.88;101207.59;5070876;28;20361;-76
2022/06/11 09:42:52;;;;;;;;;;;22.10;99.90;;;21.86;91.03;101209.16;5049415;28;20019;-77
2022/06/11 09:45:27;;;;;;;;;;;22.10;99.90;;;21.99;93.15;101205.28;5070852;28;19930;-77
2022/06/11 09:48:01;;;;;;;;;;;22.10;99.90;;;22.08;90.70;101211.28;5070574;28;19929;-77
2022/06/11 09:50:35;;;;;;;;;;;22.10;99.90;;;22.14;88.62;101206.69;5071159;28;19971;-76
2022/06/11 09:53:16;;;;;;;;;;;22.20;99.90;;;22.31;90.10;101212.34;5051365;28;19928;-77
2022/06/11 09:55:51;;;;;;;;;;;22.30;99.90;;;22.39;89.32;101215.59;5058372;28;19931;-76
2022/06/11 09:58:26;;;;;;;;;;;22.30;99.90;;;22.36;90.10;101220.78;5069832;28;20364;-77
2022/06/11 10:00:57;;;;;;;;;;;22.40;99.90;;;22.30;90.20;101222.59;5075246;28;19925;-76
2022/06/11 10:03:30;;;;;;;;;;;22.40;99.90;;;22.24;90.49;101218.84;5065731;28;19928;-77
2022/06/11 10:06:05;;;;;;;;;;;22.40;99.90;;;22.16;90.48;101221.16;5069319;28;20419;-77
2022/06/11 10:08:38;;;;;;;;;;;22.50;99.90;;;22.14;89.55;101220.56;5068393;28;20026;-76
2022/06/11 10:11:06;;;;;;;;;;;22.50;99.90;;;22.18;88.81;101219.84;5064836;28;20011;-76
2022/06/11 10:13:48;;;;;;;;;;;22.50;99.90;;;22.37;88.90;101214.13;5069751;28;20415;-76
2022/06/11 10:16:29;;;;;;;;;;;22.50;99.90;;;22.50;89.84;101216.63;5059759;28;19979;-76
2022/06/11 10:18:59;;;;;;;;;;;22.60;99.90;;;22.48;88.23;101209.63;5069455;28;19928;-76
2022/06/11 10:21:29;;;;;;;;;;;22.60;99.90;;;22.37;88.97;101209.44;5066792;28;19982;-81
2022/06/11 10:24:00;;;;;;;;;;;22.70;99.90;;;22.29;89.24;101214.53;5067389;28;19925;-76
2022/06/11 10:26:30;;;;;;;;;;;22.70;99.90;;;22.34;88.40;101220.19;5068934;28;19928;-76
2022/06/11 10:29:05;;;;;;;;;;;22.70;99.90;;;22.42;89.17;101208.69;5069127;28;19928;-76
2022/06/11 10:31:34;;;;;;;;;;;22.80;99.90;;;22.50;85.76;101218.56;5068637;28;20273;-76
2022/06/11 10:34:05;;;;;;;;;;;22.90;99.90;;;22.53;86.37;101218.91;5069012;28;19950;-76
2022/06/11 10:36:39;;;;;;;;;;;22.80;99.90;;;22.67;84.34;101211.13;5051345;28;20351;-76
2022/06/11 10:39:12;;;;;;;;;;;22.90;99.90;;;22.77;84.22;101205.78;5068560;28;19948;-76
2022/06/11 10:41:47;;;;;;;;;;;22.90;99.90;;;22.64;86.36;101206.91;5070007;28;19928;-76
2022/06/11 10:44:25;;;;;;;;;;;23.00;99.90;;;22.75;84.71;101207.09;5067233;28;19944;-76
2022/06/11 10:46:53;;;;;;;;;;;23.00;99.90;;;22.73;86.40;101210.16;5065494;28;19928;-76
2022/06/11 10:49:23;;;;;;;;;;;23.00;99.90;;;22.76;84.40;101214.34;5068009;28;20356;-76
2022/06/11 10:51:57;;;;;;;;;;;23.00;99.90;;;22.78;84.78;101206.59;5050939;28;19936;-76
2022/06/11 10:54:25;;;;;;;;;;;23.00;99.90;;;22.84;83.12;101205.59;5069103;28;19935;-76
2022/06/11 10:56:58;;;;;;;;;;;23.10;99.90;;;22.76;83.05;101203.25;5068021;28;20019;-76
2022/06/11 10:59:29;;;;;;;;;;;23.10;99.90;;;22.64;83.81;101200.53;5067118;28;20665;-76
2022/06/11 11:02:02;;;;;;;;;;;23.10;99.90;;;22.69;83.34;101208.94;5069397;28;20034;-76
2022/06/11 11:04:38;;;;;;;;;;;23.00;99.90;;;22.77;82.47;101204.91;5065360;28;19940;-76
2022/06/11 11:07:18;;;;;;;;;;;23.00;99.90;;;22.75;82.85;101207.97;5052950;22;19930;-80
2022/06/11 11:09:45;;;;;;;;;;;23.00;99.90;;;22.62;81.24;101198.00;5048269;28;19930;-80
2022/06/11 11:12:19;;;;;;;;;;;23.00;99.90;;;22.62;82.61;101206.31;4976425;28;20386;-80
2022/06/11 11:14:47;;;;;;;;;;;23.00;99.90;;;22.57;82.25;101200.66;4988055;28;19925;-80
2022/06/11 11:17:17;;;;;;;;;;;23.00;99.90;;;22.49;81.40;101195.53;4987241;28;20394;-80
2022/06/11 11:20:29;;;;;;;;;;;23.00;99.90;;;22.41;83.29;101194.00;4977730;28;20007;-81
2022/06/11 11:22:35;;;;;;;;;;;23.00;99.90;;;22.31;84.35;101198.47;4973870;28;19930;-80
2022/06/11 11:25:02;;;;;;;;;;;23.00;99.90;;;22.32;83.07;101191.84;5055811;28;19993;-81